createdAt,value
2022-12-19T00:04:30.994Z,2.82
2022-12-19T00:09:31.033Z,2.69
2022-12-19T00:14:30.883Z,2.95
2022-12-19T00:19:31.998Z,2.90
2022-12-19T00:24:30.771Z,2.89
2022-12-19T00:29:30.726Z,3.03
2022-12-19T00:34:30.683Z,2.89
2022-12-19T00:39:32.744Z,3.11
2022-12-19T00:44:30.750Z,3.00
2022-12-19T00:49:30.731Z,3.08
2022-12-19T00:54:30.778Z,3.05
2022-12-19T00:59:30.538Z,3.08
2022-12-19T01:04:32.592Z,3.32
2022-12-19T01:09:30.298Z,3.26
2022-12-19T01:14:30.257Z,3.29
2022-12-19T01:19:30.177Z,3.17
2022-12-19T01:24:30.160Z,3.28
2022-12-19T01:29:30.095Z,3.40
2022-12-19T01:34:30.002Z,3.39
2022-12-19T01:39:29.991Z,3.42
2022-12-19T01:44:30.112Z,3.39
2022-12-19T01:49:29.877Z,3.47
2022-12-19T01:54:29.816Z,3.28
2022-12-19T01:59:31.858Z,3.50
2022-12-19T02:04:31.891Z,3.48
2022-12-19T02:09:29.641Z,3.51
2022-12-19T02:14:29.600Z,3.75
2022-12-19T02:19:29.553Z,3.58
2022-12-19T02:24:29.609Z,3.70
2022-12-19T02:29:29.436Z,3.90
2022-12-19T02:34:31.421Z,3.87
2022-12-19T02:39:30.513Z,3.88
2022-12-19T02:44:29.287Z,3.91
2022-12-19T02:49:30.947Z,4.15
2022-12-19T02:54:29.147Z,4.18
2022-12-19T02:59:29.106Z,4.32
2022-12-19T03:04:29.038Z,4.51
2022-12-19T03:09:28.999Z,4.58
2022-12-19T03:14:28.947Z,4.63
2022-12-19T03:19:28.891Z,4.47
2022-12-19T03:24:28.839Z,4.65
2022-12-19T03:29:28.782Z,4.65
2022-12-19T03:34:28.751Z,4.82
2022-12-19T03:39:28.691Z,4.66
2022-12-19T03:44:28.615Z,4.77
2022-12-19T03:49:28.594Z,4.62
2022-12-19T03:54:28.521Z,4.45
2022-12-19T03:59:31.873Z,4.65
2022-12-19T04:04:28.429Z,4.65
2022-12-19T04:09:28.341Z,4.70
2022-12-19T04:14:28.416Z,4.82
2022-12-19T04:19:28.240Z,4.85
2022-12-19T04:24:28.181Z,4.72
2022-12-19T04:29:28.128Z,4.85
2022-12-19T04:34:28.077Z,5.10
2022-12-19T04:39:28.037Z,5.07
2022-12-19T04:44:30.093Z,5.27
2022-12-19T04:49:28.074Z,5.20
2022-12-19T04:54:27.961Z,5.33
2022-12-19T04:59:27.812Z,5.43
2022-12-19T05:04:27.763Z,5.17
2022-12-19T05:09:27.698Z,5.28
2022-12-19T05:14:27.666Z,5.38
2022-12-19T05:19:27.616Z,5.42
2022-12-19T05:24:27.543Z,5.33
2022-12-19T05:29:27.453Z,5.20
2022-12-19T05:34:27.456Z,5.33
2022-12-19T05:39:27.475Z,5.35
2022-12-19T05:44:27.407Z,5.53
2022-12-19T05:49:27.474Z,5.60
2022-12-19T05:54:27.405Z,5.68
2022-12-19T05:59:27.136Z,5.63
2022-12-19T06:04:28.319Z,5.56
2022-12-19T06:09:27.027Z,5.63
2022-12-19T06:14:27.081Z,5.65
2022-12-19T06:19:26.923Z,5.72
2022-12-19T06:24:26.886Z,5.78
2022-12-19T06:29:27.000Z,5.85
2022-12-19T06:34:55.151Z,6.06
2022-12-19T06:39:27.829Z,6.12
2022-12-19T06:44:26.833Z,6.09
2022-12-19T06:49:26.724Z,6.28
2022-12-19T06:54:28.573Z,6.21
2022-12-19T06:59:26.615Z,6.34
2022-12-19T07:04:26.459Z,6.37
2022-12-19T07:09:27.527Z,6.36
2022-12-19T07:14:27.415Z,6.55
2022-12-19T07:19:26.268Z,6.51
2022-12-19T07:24:26.333Z,6.64
2022-12-19T07:29:26.161Z,6.79
2022-12-19T07:34:26.104Z,6.66
2022-12-19T07:39:26.021Z,6.70
2022-12-19T07:44:26.049Z,6.79
2022-12-19T07:49:25.921Z,6.73
2022-12-19T07:54:26.934Z,6.92
2022-12-19T07:59:31.266Z,6.81
2022-12-19T08:04:26.842Z,6.77
2022-12-19T08:09:25.802Z,6.89
2022-12-19T08:14:25.633Z,6.91
2022-12-19T08:19:27.580Z,6.97
2022-12-19T08:24:25.548Z,7.05
2022-12-19T08:29:25.496Z,7.15
2022-12-19T08:34:25.458Z,7.20
2022-12-19T08:39:25.405Z,7.17
2022-12-19T08:44:25.347Z,7.24
2022-12-19T08:49:25.258Z,7.24
2022-12-19T08:54:25.225Z,7.20
2022-12-19T08:59:31.066Z,7.21
2022-12-19T09:05:45.211Z,7.34
2022-12-19T09:09:26.025Z,7.52
2022-12-19T09:14:25.066Z,7.53
2022-12-19T09:19:24.976Z,7.71
2022-12-19T09:24:24.928Z,7.72
2022-12-19T09:29:24.828Z,7.89
2022-12-19T09:34:25.589Z,7.95
2022-12-19T09:39:25.782Z,7.90
2022-12-19T09:44:24.778Z,8.18
2022-12-19T09:49:24.695Z,8.11
2022-12-19T09:54:24.582Z,8.19
2022-12-19T09:59:28.301Z,8.23
2022-12-19T10:04:25.440Z,8.29
2022-12-19T10:12:32.956Z,8.18
2022-12-19T10:14:25.337Z,8.33
2022-12-19T10:19:24.293Z,8.26
2022-12-19T10:24:24.241Z,8.48
2022-12-19T10:29:24.205Z,8.47
2022-12-19T10:34:24.129Z,8.44
2022-12-19T10:39:24.053Z,8.52
2022-12-19T10:44:23.998Z,8.62
2022-12-19T10:49:23.998Z,8.38
2022-12-19T10:54:27.578Z,8.58
2022-12-19T10:59:24.855Z,8.63
2022-12-19T11:04:23.948Z,8.63
2022-12-19T11:09:23.745Z,8.86
2022-12-19T11:19:30.251Z,8.63
2022-12-19T11:29:18.795Z,8.87
2022-12-19T11:30:26.147Z,8.98
2022-12-19T11:34:24.495Z,8.83
2022-12-19T11:39:32.273Z,9.14
2022-12-19T11:44:23.473Z,8.95
2022-12-19T11:49:23.364Z,8.98
2022-12-19T11:54:23.330Z,9.08
2022-12-19T11:59:23.232Z,9.28
2022-12-19T12:04:23.220Z,9.31
2022-12-19T12:12:47.448Z,9.24
2022-12-19T12:19:41.903Z,9.47
2022-12-19T12:31:16.376Z,9.64
2022-12-19T12:31:53.908Z,9.74
2022-12-19T12:35:14.229Z,9.60
2022-12-19T12:36:53.016Z,9.86
2022-12-19T12:39:29.830Z,9.68
2022-12-19T12:44:32.635Z,9.54
2022-12-19T12:49:23.711Z,9.76
2022-12-19T12:54:22.658Z,9.93
2022-12-19T12:59:22.672Z,10.05
2022-12-19T13:04:22.604Z,9.86
2022-12-19T13:09:22.517Z,9.94
2022-12-19T13:14:22.433Z,9.76
2022-12-19T13:19:27.925Z,9.87
2022-12-19T13:24:23.336Z,10.01
2022-12-19T13:29:22.246Z,9.93
2022-12-19T13:34:22.167Z,9.61
2022-12-19T13:40:02.344Z,9.81
2022-12-19T13:44:23.022Z,9.87
2022-12-19T13:49:22.154Z,9.86
2022-12-19T13:54:21.976Z,9.64
2022-12-19T13:59:21.882Z,9.74
2022-12-19T14:04:26.090Z,9.58
2022-12-19T14:11:24.095Z,9.53
2022-12-19T14:14:27.935Z,9.40
2022-12-19T14:19:22.663Z,9.42
2022-12-19T14:24:21.615Z,9.51
2022-12-19T14:29:28.489Z,9.46
2022-12-19T14:39:29.243Z,9.40
2022-12-19T14:51:42.964Z,9.24
2022-12-19T14:53:52.266Z,9.20
2022-12-19T14:55:59.053Z,9.15
2022-12-19T14:59:22.224Z,9.18
2022-12-19T15:04:49.547Z,8.87
2022-12-19T15:11:03.349Z,9.01
2022-12-19T15:14:57.296Z,9.23
2022-12-19T15:19:22.014Z,9.33
2022-12-19T15:24:20.964Z,9.29
2022-12-19T15:29:22.236Z,9.29
2022-12-19T15:34:35.064Z,9.35
2022-12-19T15:39:21.794Z,9.48
2022-12-19T15:44:20.716Z,9.43
2022-12-19T15:49:20.713Z,9.39
2022-12-19T15:59:21.598Z,9.38
2022-12-19T16:04:20.659Z,9.50
2022-12-19T16:09:20.461Z,9.48
2022-12-19T16:14:20.426Z,9.47
2022-12-19T16:19:20.346Z,9.51
2022-12-19T16:24:20.309Z,9.36
2022-12-19T16:29:20.282Z,9.38
2022-12-19T16:34:20.160Z,9.60
2022-12-19T16:39:21.059Z,9.60
2022-12-19T16:44:20.111Z,9.66
2022-12-19T16:49:20.025Z,9.76
2022-12-19T16:54:20.091Z,9.69
2022-12-19T16:59:19.906Z,9.76
2022-12-19T17:04:19.844Z,9.69
2022-12-19T17:09:19.919Z,9.61
2022-12-19T17:14:19.863Z,9.91
2022-12-19T17:19:21.193Z,9.91
2022-12-19T17:24:19.652Z,9.89
2022-12-19T17:29:19.606Z,9.83
2022-12-19T17:34:20.666Z,9.79
2022-12-19T17:39:20.590Z,9.97
2022-12-19T17:44:19.588Z,10.09
2022-12-19T17:49:19.478Z,10.07
2022-12-19T17:54:19.381Z,10.04
2022-12-19T17:59:19.377Z,10.02
2022-12-19T18:04:20.124Z,10.18
2022-12-19T18:09:19.159Z,10.23
2022-12-19T18:14:19.108Z,10.23
2022-12-19T18:19:19.072Z,10.17
2022-12-19T18:24:19.037Z,10.27
2022-12-19T18:29:18.940Z,10.26
2022-12-19T18:34:18.874Z,10.36
2022-12-19T18:39:18.801Z,10.30
2022-12-19T18:44:18.784Z,10.15
2022-12-19T18:49:18.777Z,10.14
2022-12-19T18:54:19.036Z,10.12
2022-12-19T18:59:18.848Z,10.09
2022-12-19T19:04:18.775Z,10.29
2022-12-19T19:09:18.549Z,10.33
2022-12-19T19:14:19.728Z,10.36
2022-12-19T19:19:18.382Z,10.44
2022-12-19T19:24:18.320Z,10.36
2022-12-19T19:29:18.200Z,10.53
2022-12-19T19:34:21.516Z,10.63
2022-12-19T19:39:18.130Z,10.63
2022-12-19T19:44:18.151Z,10.55
2022-12-19T19:49:18.036Z,10.42
2022-12-19T19:54:17.986Z,10.59
2022-12-19T19:59:17.897Z,10.71
2022-12-19T20:04:17.943Z,10.92
2022-12-19T20:09:17.785Z,10.91
2022-12-19T20:14:26.604Z,10.92
2022-12-19T20:19:17.687Z,10.99
2022-12-19T20:24:17.717Z,10.92
2022-12-19T20:29:17.651Z,10.99
2022-12-19T20:34:17.518Z,10.96
2022-12-19T20:39:17.505Z,10.96
2022-12-19T20:44:23.675Z,11.02
2022-12-19T20:49:18.345Z,11.02
2022-12-19T20:54:17.276Z,10.89
2022-12-19T20:59:17.250Z,11.07
2022-12-19T21:04:17.449Z,11.11
2022-12-19T21:09:17.198Z,11.11
2022-12-19T21:14:17.053Z,11.15
2022-12-19T21:19:17.072Z,10.94
2022-12-19T21:24:17.068Z,10.82
2022-12-19T21:29:16.973Z,10.92
2022-12-19T21:34:17.071Z,10.92
2022-12-19T21:39:16.944Z,10.91
2022-12-19T21:44:16.864Z,11.02
2022-12-19T21:49:16.707Z,10.86
2022-12-19T21:54:16.762Z,10.94
2022-12-19T21:59:16.601Z,10.67
2022-12-19T22:04:16.718Z,10.79
2022-12-19T22:09:16.969Z,10.73
2022-12-19T22:14:16.463Z,10.85
2022-12-19T22:19:16.518Z,11.02
2022-12-19T22:24:16.349Z,11.07
2022-12-19T22:29:16.316Z,11.03
2022-12-19T22:34:16.213Z,11.18
2022-12-19T22:39:16.173Z,11.10
2022-12-19T22:44:16.139Z,11.28
2022-12-19T22:49:16.126Z,11.51
2022-12-19T22:54:15.942Z,11.39
2022-12-19T22:59:15.943Z,11.47
2022-12-19T23:04:16.273Z,11.42
2022-12-19T23:09:15.767Z,11.80
2022-12-19T23:14:17.194Z,11.52
2022-12-19T23:19:15.774Z,11.76
2022-12-19T23:24:15.829Z,11.64
2022-12-19T23:29:16.573Z,11.57
2022-12-19T23:34:15.510Z,11.64
2022-12-19T23:39:15.518Z,11.67
2022-12-19T23:45:46.688Z,11.91
2022-12-19T23:50:46.525Z,11.91
2022-12-19T23:55:47.525Z,12.05
